• Join FlightAware (Why Join?)
  • Login
  • US Flag 
05:28PM EDT


 

Airport Tracker/Info


-or-


 

Live Flight TrackerFlight Track Log ✈ KAP46 ✈ 09-Aug-2013 ✈ KALB - KMSS

Flight Track Log - Related Links

Times and Time Zones

All times are in EDT time to prevent confusion due to time zone crossing. See the KAP46 flight status page for this flight to view local times or setup timezone preferences in your user account.

Time Position Orientation Groundspeed Altitude Reporting Facility
EDT Latitude Longitude Course Direction KTS MPH feet Rate Location/Type
10:54AM 42.7278 -73.8081 161° South 108 124 900  Level Boston Center
10:55AM 42.7028 -73.7961 161° South 117 135 1,700 660 Climbing Boston Center
10:56AM 42.7056 -73.7511 85° East 155 178 2,100 420 Climbing Boston Center
10:57AM 42.7433 -73.7319 20° North 157 181 2,600 540 Climbing Boston Center
10:58AM 42.7828 -73.7244 North 139 160 3,200 540 Climbing Boston Center
10:59AM 42.8247 -73.7197 North 139 160 3,800 480 Climbing Boston Center
11:00AM 42.8619 -73.7317 347° North 135 155 4,200 360 Climbing Boston Center
11:01AM 42.8950 -73.7550 333° Northwest 138 159 4,600 300 Climbing Boston Center
11:02AM 42.9344 -73.7700 344° North 144 166 4,900 420 Climbing Boston Center
11:03AM 42.9697 -73.7908 337° Northwest 136 157 5,500 420 Climbing Boston Center
11:04AM 43.0072 -73.8000 350° North 139 160 5,800 240 Climbing Boston Center
11:05AM 43.0464 -73.8208 339° North 146 168 6,100 300 Climbing Boston Center
11:06AM 43.0858 -73.8417 339° North 147 169 6,500 420 Climbing Boston Center
11:07AM 43.1253 -73.8567 344° North 148 170 7,000 240 Climbing Boston Center
11:08AM 43.1458 -73.8772 324° Northwest 151 174 6,900  Descending Boston Center
11:08AM 43.1644 -73.8803 353° North 154 177 7,000  Climbing Boston Center
11:09AM 43.1936 -73.8925 343° North 171 197 6,900 -60 Descending Boston Center
11:10AM 43.2414 -73.9078 347° North 171 197 6,900  Level Boston Center
11:11AM 43.2825 -73.9344 335° Northwest 164 189 6,900  Level Boston Center
11:12AM 43.3283 -73.9528 344° North 170 196 6,900  Level Boston Center
11:13AM 43.3739 -73.9567 356° North 160 184 6,900  Level Boston Center
11:14AM 43.4175 -73.9694 348° North 166 191 6,900  Level Boston Center
11:15AM 43.4611 -73.9906 341° North 160 184 6,900  Level Boston Center
11:16AM 43.5003 -74.0114 339° North 160 184 6,900  Level Boston Center
11:17AM 43.5439 -74.0356 338° Northwest 160 184 6,900  Level Boston Center
11:18AM 43.5853 -74.0594 337° Northwest 160 184 6,900  Level Boston Center
11:19AM 43.6264 -74.0836 337° Northwest 155 178 6,900  Level Boston Center
11:20AM 43.6658 -74.1047 339° North 155 178 6,900  Level Boston Center
11:21AM 43.7050 -74.1289 336° Northwest 155 178 6,900  Level Boston Center
11:22AM 43.7464 -74.1531 337° Northwest 155 178 6,900  Level Boston Center
11:23AM 43.7856 -74.1742 339° North 155 178 6,900  Level Boston Center
11:24AM 43.8269 -74.1983 337° Northwest 155 178 6,900  Level Boston Center
11:25AM 43.8661 -74.2197 339° North 155 178 6,900  Level Boston Center
11:26AM 43.9158 -74.2442 340° North 155 178 6,900  Level Boston Center
11:27AM 43.9636 -74.2486 356° North 155 178 6,900  Level Boston Center
11:29AM 44.0099 -74.2785 335° Northwest  Level FlightAware Approximate
11:29AM 44.0550 -74.2658 335° Northwest 160 184 6,900  Level Boston Center
11:30AM 44.0989 -74.2700 356° North 160 184 6,900  Level Boston Center
11:31AM 44.1444 -74.2772 354° North 160 184 6,900  Level Boston Center
11:32AM 44.1883 -74.2814 356° North 165 190 6,900  Level Boston Center
11:33AM 44.2361 -74.2800 North 160 184 6,900  Level Boston Center
11:34AM 44.2778 -74.2872 353° North 155 178 6,900  Level Boston Center
11:35AM 44.3106 -74.3172 327° Northwest 150 173 6,900  Level Boston Center
11:36AM 44.3456 -74.3417 333° Northwest 145 167 6,900  Level Boston Center
11:37AM 44.3786 -74.3686 330° Northwest 140 161 6,900  Level Boston Center
11:38AM 44.4133 -74.4017 326° Northwest 140 161 6,900  Level Boston Center
11:39AM 44.4503 -74.4322 329° Northwest 145 167 6,900  Level Boston Center
11:40AM 44.4936 -74.4656 331° Northwest 145 167 6,900  Level Boston Center
11:41AM 44.5181 -74.4983 316° Northwest 150 173 6,900  Level Boston Center
11:42AM 44.5400 -74.5431 305° West 137 158 6,900  Level Boston Center
11:43AM 44.5622 -74.5844 307° West 137 158 6,900  Level Boston Center
11:44AM 44.5864 -74.6261 309° West 137 158 6,900  Level Boston Center
11:45AM 44.6125 -74.6739 308° West 137 158 6,900  Level Boston Center
11:46AM 44.6347 -74.7183 305° West 137 158 6,900  Level Boston Center
11:47AM 44.6569 -74.7544 311° West 132 152 6,900  Level Boston Center
11:48AM 44.6808 -74.8019 305° West 140 161 6,900  Level Boston Center
11:49AM 44.7050 -74.8439 309° West 140 161 6,900  Level Boston Center
11:50AM 44.7311 -74.8975 304° West 140 161 6,900  Level Boston Center
11:51AM 44.7486 -74.9481 296° West 140 161 6,900  Level Boston Center
11:52AM 44.7622 -74.9925 293° West 135 155 6,900  Level Boston Center
11:54AM 44.7656 -75.0364 276° West 135 155 6,900 -60 Level Boston Center
11:55AM 44.7356 -74.9825 128° Southeast 59 68 6,800 -240 Descending Boston Center
11:56AM 44.7075 -74.9286 126° Southeast 108 124 6,400 -480 Descending Boston Center
11:57AM 44.6775 -74.8661 124° Southeast 153 176 5,800 -600 Descending Boston Center
11:58AM 44.6475 -74.8122 128° Southeast 166 191 5,300 -660 Descending Boston Center
11:59AM 44.6528 -74.7542 83° East 145 167 4,400 720 Descending Boston Center
12:00PM 44.6481 -74.6781 95° East 145 167 7,000 1,260 Climbing Boston Center
12:01PM 44.6428 -74.6194 97° East 145 167 7,000  Level Boston Center
12:02PM 44.6397 -74.5611 94° East 145 167 7,000  Level Boston Center
12:03PM 44.6486 -74.5350 64° Northeast 145 167 7,000  Level Boston Center
12:04PM 44.8431 -74.7119 327° Northwest 145 167 7,000  Level Boston Center
12:05PM 44.8600 -74.7097 North 145 167 7,000  Level Boston Center
12:06PM 44.9017 -74.7053 North 145 167 7,000  Level Boston Center
12:07PM 44.9433 -74.6983 North 145 167 7,000  Level Boston Center
12:08PM 44.9686 -74.6964 North 145 167 7,000  Level Boston Center
12:09PM 44.9686 -74.6964 35° Northeast 145 167 7,000  Level Boston Center
12:11PM 44.9686 -74.6964 35° Northeast 145 167 7,000  Level Boston Center
12:13PM 44.9686 -74.6964 35° Northeast 145 167 7,000  Level Boston Center
12:15PM 44.9520 -74.7608 250° West  Level FlightAware Approximate
12:22PM 44.9333 -74.8333 253° West  Level FlightAware Approximate
12:23PM 44.9362 -74.8451 253° West  Level Estimated